Terminal Aerodrome Forecast
Issued by NWS Bismarck, ND

Home | Current Version | Previous Version | Graphics & Text | Print | Product List | Glossary On
Versions: 1 2 3 4 5 6 7 8 9 10 11 12 13 14 15 16 17 18 19 20 21
000
FTUS43 KBIS 212300
TAFISN
TAF
KISN 212322Z 2200/2224 01015KT P6SM VCSH SCT100 BKN120
     FM220100 02005KT P6SM FEW045 BKN090
     FM220800 03003KT P6SM VCFG SCT015 BKN025
     FM221300 08005KT P6SM FEW025 FEW050
     FM221800 09008KT P6SM FEW060=

USA.gov is the U.S. government's official web portal to all federal, state and local government web resources and services.